createdAt,value
2018-11-27T00:00:26.209Z,53.73
2018-11-27T00:02:58.814Z,54.80
2018-11-27T00:05:27.744Z,57.57
2018-11-27T00:07:56.386Z,53.70
2018-11-27T00:10:25.040Z,55.77
2018-11-27T00:12:53.726Z,53.47
2018-11-27T00:15:22.296Z,57.13
2018-11-27T00:17:50.920Z,56.77
2018-11-27T00:20:19.458Z,57.23
2018-11-27T00:22:48.046Z,61.77
2018-11-27T00:25:17.731Z,58.30
2018-11-27T00:27:46.329Z,55.10
2018-11-27T00:30:18.522Z,51.83
2018-11-27T00:32:47.201Z,56.60
2018-11-27T00:35:17.313Z,55.30
2018-11-27T00:37:46.306Z,54.60
2018-11-27T00:40:16.638Z,59.20
2018-11-27T00:42:45.236Z,51.33
2018-11-27T00:45:14.982Z,61.93
2018-11-27T00:47:44.474Z,63.40
2018-11-27T00:50:14.332Z,55.60
2018-11-27T00:52:42.889Z,58.20
2018-11-27T00:55:12.551Z,57.90
2018-11-27T00:57:42.026Z,56.60
2018-11-27T01:00:12.380Z,54.63
2018-11-27T01:02:40.919Z,51.80
2018-11-27T01:05:11.336Z,54.53
2018-11-27T01:07:39.910Z,58.40
2018-11-27T01:10:13.070Z,53.80
2018-11-27T01:12:41.790Z,60.77
2018-11-27T01:15:11.592Z,53.07
2018-11-27T01:17:42.411Z,59.20
2018-11-27T01:20:14.292Z,51.60
2018-11-27T01:22:42.780Z,57.00
2018-11-27T01:25:11.548Z,56.50
2018-11-27T01:27:39.991Z,54.23
2018-11-27T01:30:14.673Z,54.23
2018-11-27T01:32:43.270Z,62.40
2018-11-27T01:35:14.063Z,54.63
2018-11-27T01:37:42.524Z,60.77
2018-11-27T01:40:12.541Z,53.53
2018-11-27T01:42:40.991Z,51.90
2018-11-27T01:45:10.943Z,57.63
2018-11-27T01:47:39.531Z,60.70
2018-11-27T01:50:11.403Z,52.97
2018-11-27T01:52:39.894Z,52.67
2018-11-27T01:55:16.838Z,59.90
2018-11-27T01:57:45.500Z,51.27
2018-11-27T02:00:23.697Z,53.73
2018-11-27T02:02:53.056Z,57.37
2018-11-27T02:05:22.204Z,52.90
2018-11-27T02:07:50.686Z,50.70
2018-11-27T02:10:19.227Z,52.57
2018-11-27T02:12:48.788Z,53.63
2018-11-27T02:15:21.328Z,52.60
2018-11-27T02:17:50.039Z,57.87
2018-11-27T02:20:18.522Z,56.37
2018-11-27T02:22:47.187Z,53.13
2018-11-27T02:25:17.004Z,60.07
2018-11-27T02:27:45.664Z,54.10
2018-11-27T02:30:16.253Z,55.47
2018-11-27T02:32:44.714Z,58.30
2018-11-27T02:35:14.234Z,60.00
2018-11-27T02:37:42.901Z,56.40
2018-11-27T02:40:13.650Z,55.77
2018-11-27T02:42:42.077Z,57.50
2018-11-27T02:45:12.876Z,58.53
2018-11-27T02:47:41.580Z,49.33
2018-11-27T02:50:11.431Z,55.00
2018-11-27T02:52:40.081Z,55.17
2018-11-27T02:55:12.847Z,58.20
2018-11-27T02:57:41.299Z,58.57
2018-11-27T03:00:12.158Z,56.43
2018-11-27T03:02:41.058Z,52.13
2018-11-27T03:05:14.930Z,49.33
2018-11-27T03:07:43.394Z,50.90
2018-11-27T03:10:13.952Z,49.10
2018-11-27T03:12:42.432Z,51.47
2018-11-27T03:15:14.188Z,51.63
2018-11-27T03:17:42.659Z,47.23
2018-11-27T03:20:12.829Z,43.97
2018-11-27T03:22:41.546Z,47.20
2018-11-27T03:25:13.006Z,51.53
2018-11-27T03:27:41.602Z,47.77
2018-11-27T03:30:13.303Z,46.97
2018-11-27T03:32:42.167Z,51.30
2018-11-27T03:35:12.873Z,44.67
2018-11-27T03:37:41.384Z,45.67
2018-11-27T03:40:26.911Z,43.20
2018-11-27T03:42:55.373Z,51.10
2018-11-27T03:45:24.444Z,46.30
2018-11-27T03:47:53.144Z,47.43
2018-11-27T03:50:23.683Z,47.30
2018-11-27T03:52:52.110Z,48.87
2018-11-27T03:55:20.554Z,44.50
2018-11-27T03:57:49.025Z,50.93
2018-11-27T04:00:18.761Z,50.87
2018-11-27T04:02:48.592Z,48.13
2018-11-27T04:05:17.182Z,51.53
2018-11-27T04:07:45.900Z,43.93
2018-11-27T04:10:16.641Z,52.30
2018-11-27T04:12:45.118Z,49.90
2018-11-27T04:15:14.002Z,48.03
2018-11-27T04:17:42.506Z,51.07
2018-11-27T04:20:11.872Z,53.37
2018-11-27T04:22:40.975Z,45.33
2018-11-27T04:25:11.068Z,48.73
2018-11-27T04:27:39.651Z,55.47
2018-11-27T04:30:12.527Z,49.47
2018-11-27T04:32:41.036Z,47.73
2018-11-27T04:35:11.105Z,48.73
2018-11-27T04:37:39.568Z,51.93
2018-11-27T04:40:11.287Z,46.77
2018-11-27T04:42:39.756Z,46.97
2018-11-27T04:45:13.641Z,48.37
2018-11-27T04:47:42.143Z,52.10
2018-11-27T04:50:11.860Z,43.53
2018-11-27T04:52:40.341Z,48.83
2018-11-27T04:55:13.027Z,53.47
2018-11-27T04:57:41.639Z,50.07
2018-11-27T05:00:15.696Z,45.60
2018-11-27T05:02:44.169Z,48.63
2018-11-27T05:05:12.635Z,47.13
2018-11-27T05:07:41.301Z,49.00
2018-11-27T05:10:14.893Z,46.33
2018-11-27T05:12:43.895Z,56.93
2018-11-27T05:15:16.649Z,52.80
2018-11-27T05:17:48.048Z,52.90
2018-11-27T05:20:14.521Z,52.57
2018-11-27T05:22:42.945Z,47.87
2018-11-27T05:25:14.423Z,51.90
2018-11-27T05:27:44.199Z,48.67
2018-11-27T05:30:17.941Z,48.23
2018-11-27T05:32:46.381Z,51.00
2018-11-27T05:35:20.016Z,51.10
2018-11-27T05:37:49.262Z,47.27
2018-11-27T05:40:25.060Z,46.43
2018-11-27T05:42:55.697Z,46.43
2018-11-27T05:45:25.056Z,51.07
2018-11-27T05:47:53.536Z,53.40
2018-11-27T05:50:21.961Z,48.83
2018-11-27T05:52:50.594Z,51.43
2018-11-27T05:55:19.456Z,44.20
2018-11-27T05:57:51.227Z,47.13
2018-11-27T06:00:25.545Z,50.17
2018-11-27T06:02:55.381Z,43.20
2018-11-27T06:05:24.118Z,49.50
2018-11-27T06:07:52.793Z,48.10
2018-11-27T06:10:22.558Z,53.60
2018-11-27T06:12:51.461Z,47.27
2018-11-27T06:15:23.985Z,48.90
2018-11-27T06:17:55.870Z,53.10
2018-11-27T06:20:24.477Z,46.87
2018-11-27T06:22:53.656Z,48.37
2018-11-27T06:25:24.566Z,45.47
2018-11-27T06:27:55.383Z,49.93
2018-11-27T06:30:24.983Z,48.90
2018-11-27T06:32:53.426Z,48.27
2018-11-27T06:35:23.092Z,46.17
2018-11-27T06:37:51.596Z,42.67
2018-11-27T06:40:21.290Z,45.77
2018-11-27T06:42:49.903Z,45.30
2018-11-27T06:45:19.310Z,46.20
2018-11-27T06:47:48.940Z,52.70
2018-11-27T06:50:18.422Z,49.07
2018-11-27T06:52:46.874Z,48.37
2018-11-27T06:55:16.555Z,54.37
2018-11-27T06:57:45.005Z,46.57
2018-11-27T07:00:17.618Z,47.97
2018-11-27T07:02:46.317Z,44.27
2018-11-27T07:05:15.252Z,55.50
2018-11-27T07:07:43.843Z,51.77
2018-11-27T07:10:16.733Z,45.93
2018-11-27T07:12:45.335Z,49.20
2018-11-27T07:15:15.519Z,48.33
2018-11-27T07:17:44.005Z,55.90
2018-11-27T07:20:13.150Z,50.13
2018-11-27T07:22:41.648Z,45.77
2018-11-27T07:25:11.769Z,47.63
2018-11-27T07:27:41.059Z,45.67
2018-11-27T07:30:24.998Z,47.80
2018-11-27T07:32:53.507Z,41.67
2018-11-27T07:35:22.560Z,50.47
2018-11-27T07:37:51.393Z,46.80
2018-11-27T07:40:21.331Z,50.20
2018-11-27T07:42:51.325Z,50.20
2018-11-27T07:45:21.067Z,54.83
2018-11-27T07:47:49.615Z,50.17
2018-11-27T07:50:18.528Z,48.07
2018-11-27T07:52:47.202Z,49.97
2018-11-27T07:55:19.609Z,45.17
2018-11-27T07:57:48.926Z,48.70
2018-11-27T08:00:18.809Z,48.63
2018-11-27T08:02:48.526Z,44.43
2018-11-27T08:05:19.501Z,48.33
2018-11-27T08:07:53.045Z,49.43
2018-11-27T08:10:23.518Z,53.93
2018-11-27T08:12:52.008Z,49.63
2018-11-27T08:15:23.237Z,47.13
2018-11-27T08:17:51.990Z,48.23
2018-11-27T08:20:22.014Z,46.43
2018-11-27T08:22:50.454Z,49.00
2018-11-27T08:25:19.098Z,45.23
2018-11-27T08:27:47.531Z,43.90
2018-11-27T08:30:23.336Z,44.60
2018-11-27T08:32:52.557Z,44.80
2018-11-27T08:35:23.390Z,48.57
2018-11-27T08:37:53.056Z,44.17
2018-11-27T08:40:22.738Z,47.03
2018-11-27T08:42:51.306Z,48.17
2018-11-27T08:45:20.916Z,48.13
2018-11-27T08:47:50.427Z,47.03
2018-11-27T08:50:20.152Z,47.90
2018-11-27T08:52:49.964Z,41.53
2018-11-27T08:55:21.889Z,48.00
2018-11-27T08:57:50.851Z,46.97
2018-11-27T09:00:22.525Z,45.53
2018-11-27T09:02:50.951Z,44.83
2018-11-27T09:05:19.539Z,49.57
2018-11-27T09:07:48.436Z,46.63
2018-11-27T09:10:21.331Z,44.77
2018-11-27T09:12:50.049Z,43.67
2018-11-27T09:15:19.621Z,44.70
2018-11-27T09:18:54.225Z,45.80
2018-11-27T09:21:22.700Z,52.13
2018-11-27T09:23:51.336Z,46.10
2018-11-27T09:26:19.791Z,40.43
2018-11-27T09:28:48.247Z,45.27
2018-11-27T09:31:16.674Z,46.27
2018-11-27T09:33:46.230Z,39.33
2018-11-27T09:36:14.768Z,50.30
2018-11-27T09:38:43.233Z,49.27
2018-11-27T09:41:11.725Z,44.17
2018-11-27T09:43:40.573Z,40.50
2018-11-27T09:46:09.197Z,39.50
2018-11-27T09:48:44.405Z,42.70
2018-11-27T09:51:12.961Z,45.87
2018-11-27T09:53:41.615Z,45.50
2018-11-27T09:56:10.265Z,43.70
2018-11-27T09:58:38.753Z,46.60
2018-11-27T10:01:07.813Z,48.80
2018-11-27T10:03:36.343Z,42.03
2018-11-27T10:06:04.907Z,55.60
2018-11-27T10:08:33.429Z,39.60
2018-11-27T10:11:01.916Z,42.80
2018-11-27T10:13:30.352Z,46.07
2018-11-27T10:15:58.875Z,41.87
2018-11-27T10:18:27.440Z,49.30
2018-11-27T10:20:56.298Z,40.70
2018-11-27T10:23:24.864Z,44.27
2018-11-27T10:25:53.328Z,43.00
2018-11-27T10:28:21.798Z,41.97
2018-11-27T10:30:50.272Z,47.63
2018-11-27T10:33:18.727Z,44.50
2018-11-27T10:35:50.350Z,42.30
2018-11-27T10:38:18.964Z,42.23
2018-11-27T10:40:47.570Z,37.40
2018-11-27T10:43:19.715Z,45.47
2018-11-27T10:45:44.684Z,43.33
2018-11-27T10:48:13.139Z,41.77
2018-11-27T10:50:41.743Z,39.03
2018-11-27T10:53:11.572Z,41.83
2018-11-27T10:55:40.023Z,46.07
2018-11-27T10:58:08.763Z,37.70
2018-11-27T11:00:43.896Z,36.77
2018-11-27T11:03:42.917Z,39.50
2018-11-27T11:06:11.711Z,35.77
2018-11-27T11:08:40.151Z,37.77
2018-11-27T11:11:09.085Z,41.63
2018-11-27T11:13:37.553Z,38.90
2018-11-27T11:16:07.183Z,38.07
2018-11-27T11:18:36.043Z,45.27
2018-11-27T11:21:04.549Z,44.23
2018-11-27T11:23:33.195Z,38.33
2018-11-27T11:26:01.691Z,37.50
2018-11-27T11:28:31.525Z,35.17
2018-11-27T11:31:01.221Z,38.67
2018-11-27T11:33:29.675Z,32.10
2018-11-27T11:35:58.249Z,33.93
2018-11-27T11:38:26.735Z,31.50
2018-11-27T11:40:55.561Z,33.87
2018-11-27T11:43:24.087Z,38.53
2018-11-27T11:45:52.552Z,37.33
2018-11-27T11:48:20.998Z,34.90
2018-11-27T11:50:49.492Z,33.27
2018-11-27T11:53:18.978Z,33.20
2018-11-27T11:55:48.386Z,31.03
2018-11-27T11:58:17.453Z,34.40
2018-11-27T12:00:49.650Z,35.37
2018-11-27T12:03:18.146Z,36.47
2018-11-27T12:05:46.694Z,34.00
2018-11-27T12:08:15.189Z,34.60
2018-11-27T12:10:43.664Z,33.67
2018-11-27T12:13:12.394Z,36.53
2018-11-27T12:15:40.977Z,35.07
2018-11-27T12:18:10.095Z,34.30
2018-11-27T12:20:39.483Z,33.87
2018-11-27T12:23:09.765Z,33.87
2018-11-27T12:25:38.985Z,33.50
2018-11-27T12:28:14.349Z,33.47
2018-11-27T12:30:37.506Z,32.53
2018-11-27T12:33:06.721Z,37.63
2018-11-27T12:35:35.739Z,35.50
2018-11-27T12:38:04.677Z,38.37
2018-11-27T12:40:33.152Z,34.10
2018-11-27T12:43:01.672Z,37.70
2018-11-27T12:45:31.786Z,42.17
2018-11-27T12:48:01.881Z,41.57
2018-11-27T12:50:34.555Z,40.93
2018-11-27T12:53:02.989Z,40.77
2018-11-27T12:55:31.426Z,35.93
2018-11-27T12:57:59.990Z,41.30
2018-11-27T13:00:28.590Z,33.27
2018-11-27T13:02:57.302Z,41.23
2018-11-27T13:05:27.175Z,33.83
2018-11-27T13:07:59.580Z,39.47
2018-11-27T13:10:28.050Z,33.53
2018-11-27T13:12:56.535Z,37.80
2018-11-27T13:15:25.299Z,38.57
2018-11-27T13:17:54.254Z,37.07
2018-11-27T13:20:22.674Z,36.90
2018-11-27T13:22:51.786Z,35.30
2018-11-27T13:25:21.822Z,34.97
2018-11-27T13:27:52.486Z,40.13
2018-11-27T13:30:25.768Z,33.03
2018-11-27T13:32:57.138Z,37.43
2018-11-27T13:35:25.632Z,35.80
2018-11-27T13:37:54.088Z,36.03
2018-11-27T13:40:22.688Z,34.37
2018-11-27T13:42:51.165Z,36.13
2018-11-27T13:45:19.746Z,40.10
2018-11-27T13:47:48.250Z,30.10
2018-11-27T13:50:17.564Z,34.57
2018-11-27T13:52:46.002Z,33.43
2018-11-27T13:55:18.080Z,32.60
2018-11-27T13:57:46.676Z,36.10
2018-11-27T14:00:19.205Z,36.67
2018-11-27T14:02:50.312Z,34.73
2018-11-27T14:05:20.167Z,36.23
2018-11-27T14:07:48.661Z,35.73
2018-11-27T14:10:17.261Z,35.10
2018-11-27T14:12:45.758Z,32.93
2018-11-27T14:15:16.284Z,35.10
2018-11-27T14:17:44.979Z,37.13
2018-11-27T14:20:13.664Z,37.47
2018-11-27T14:22:43.356Z,39.30
2018-11-27T14:25:12.781Z,38.70
2018-11-27T14:27:41.299Z,45.97
2018-11-27T14:30:14.049Z,50.40
2018-11-27T14:32:42.554Z,53.87
2018-11-27T14:35:11.473Z,52.87
2018-11-27T14:37:39.965Z,55.30
2018-11-27T14:40:10.477Z,59.53
2018-11-27T14:42:39.001Z,65.57
2018-11-27T14:45:09.447Z,68.23
2018-11-27T14:47:38.155Z,69.27
2018-11-27T14:50:08.745Z,63.77
2018-11-27T14:52:37.307Z,61.87
2018-11-27T14:55:08.825Z,67.77
2018-11-27T14:57:37.261Z,71.70
2018-11-27T15:00:11.954Z,63.60
2018-11-27T15:02:40.710Z,77.23
2018-11-27T15:05:12.153Z,74.80
2018-11-27T15:07:40.769Z,73.57
2018-11-27T15:10:11.065Z,79.07
2018-11-27T15:12:39.800Z,81.87
2018-11-27T15:15:10.816Z,83.93
2018-11-27T15:17:39.279Z,78.27
2018-11-27T15:20:18.105Z,78.47
2018-11-27T15:22:46.941Z,79.27
2018-11-27T15:25:15.677Z,84.60
2018-11-27T15:27:44.224Z,79.83
2018-11-27T15:30:31.883Z,83.77
2018-11-27T15:33:01.040Z,78.47
2018-11-27T15:35:29.538Z,88.63
2018-11-27T15:37:58.097Z,82.43
2018-11-27T15:40:27.907Z,84.47
2018-11-27T15:42:56.325Z,86.87
2018-11-27T15:45:29.953Z,84.13
2018-11-27T15:47:58.409Z,87.33
2018-11-27T15:50:27.037Z,82.17
2018-11-27T15:52:55.541Z,90.60
2018-11-27T15:55:28.693Z,89.97
2018-11-27T15:58:03.343Z,82.77
2018-11-27T16:00:32.132Z,84.93
2018-11-27T16:03:01.037Z,81.40
2018-11-27T16:05:29.190Z,87.23
2018-11-27T16:07:57.760Z,93.27
2018-11-27T16:10:26.358Z,92.70
2018-11-27T16:12:55.018Z,84.10
2018-11-27T16:15:23.464Z,89.23
2018-11-27T16:17:51.892Z,90.63
2018-11-27T16:20:22.040Z,86.97
2018-11-27T16:22:51.680Z,91.60
2018-11-27T16:25:21.693Z,94.17
2018-11-27T16:27:50.171Z,93.80
2018-11-27T16:30:22.059Z,97.17
2018-11-27T16:32:50.579Z,90.43
2018-11-27T16:35:19.233Z,94.03
2018-11-27T16:37:51.245Z,83.80
2018-11-27T16:40:21.447Z,91.60
2018-11-27T16:42:50.077Z,97.37
2018-11-27T16:45:20.548Z,92.00
2018-11-27T16:47:49.253Z,97.10
2018-11-27T16:50:18.495Z,90.83
2018-11-27T16:52:47.477Z,94.97
2018-11-27T16:55:18.515Z,97.27
2018-11-27T16:57:47.187Z,91.37
2018-11-27T17:00:22.200Z,89.97
2018-11-27T17:02:51.848Z,92.67
2018-11-27T17:05:20.341Z,81.23
2018-11-27T17:07:48.970Z,89.23
2018-11-27T17:10:18.675Z,92.90
2018-11-27T17:12:58.071Z,94.50
2018-11-27T17:15:27.621Z,98.77
2018-11-27T17:17:56.294Z,88.27
2018-11-27T17:20:27.996Z,97.73
2018-11-27T17:22:57.922Z,89.40
2018-11-27T17:25:26.783Z,100.70
2018-11-27T17:27:56.552Z,93.67
2018-11-27T17:30:31.408Z,83.53
2018-11-27T17:33:00.441Z,91.83
2018-11-27T17:35:29.136Z,91.37
2018-11-27T17:37:57.589Z,85.83
2018-11-27T17:40:26.147Z,91.57
2018-11-27T17:42:55.234Z,81.67
2018-11-27T17:45:23.697Z,90.77
2018-11-27T17:47:52.165Z,85.83
2018-11-27T17:50:20.701Z,75.73
2018-11-27T17:52:49.177Z,81.77
2018-11-27T17:55:17.717Z,81.77
2018-11-27T17:57:46.163Z,74.00
2018-11-27T18:00:19.008Z,79.70
2018-11-27T18:02:49.554Z,74.10
2018-11-27T18:05:18.431Z,78.17
2018-11-27T18:07:47.275Z,75.30
2018-11-27T18:10:15.885Z,70.33
2018-11-27T18:12:48.865Z,68.60
2018-11-27T18:15:22.233Z,70.27
2018-11-27T18:17:50.849Z,67.10
2018-11-27T18:20:19.325Z,61.83
2018-11-27T18:22:48.190Z,65.10
2018-11-27T18:25:18.433Z,64.53
2018-11-27T18:27:47.901Z,59.67
2018-11-27T18:30:18.556Z,52.77
2018-11-27T18:32:47.174Z,51.40
2018-11-27T18:35:17.671Z,50.50
2018-11-27T18:37:46.619Z,52.37
2018-11-27T18:40:15.793Z,52.43
2018-11-27T18:42:44.717Z,44.77
2018-11-27T18:45:18.556Z,47.67
2018-11-27T18:47:47.482Z,45.27
2018-11-27T18:50:16.181Z,42.57
2018-11-27T18:52:44.690Z,42.43
2018-11-27T18:55:14.558Z,41.97
2018-11-27T18:57:43.782Z,35.73
2018-11-27T19:00:13.722Z,35.77
2018-11-27T19:02:42.458Z,40.00
2018-11-27T19:05:10.912Z,39.73
2018-11-27T19:07:39.402Z,39.23
2018-11-27T19:10:16.414Z,43.70
2018-11-27T19:12:45.338Z,42.13
2018-11-27T19:15:22.400Z,40.60
2018-11-27T19:17:53.514Z,34.97
2018-11-27T19:20:22.417Z,38.80
2018-11-27T19:22:51.015Z,41.03
2018-11-27T19:25:19.525Z,33.50
2018-11-27T19:27:48.828Z,34.33
2018-11-27T19:30:22.126Z,36.17
2018-11-27T19:32:50.854Z,36.43
2018-11-27T19:35:25.220Z,36.87
2018-11-27T19:37:50.040Z,34.27
2018-11-27T19:40:19.230Z,32.00
2018-11-27T19:42:47.673Z,35.83
2018-11-27T19:45:20.327Z,32.83
2018-11-27T19:47:48.840Z,30.63
2018-11-27T19:50:18.499Z,33.90
2018-11-27T19:52:48.127Z,33.43
2018-11-27T19:55:17.500Z,33.90
2018-11-27T19:57:46.155Z,39.00
2018-11-27T20:00:18.107Z,33.43
2018-11-27T20:02:46.525Z,25.30
2018-11-27T20:05:17.139Z,29.43
2018-11-27T20:07:45.804Z,30.93
2018-11-27T20:10:15.098Z,32.90
2018-11-27T20:12:43.567Z,27.77
2018-11-27T20:15:13.721Z,31.87
2018-11-27T20:17:42.354Z,30.70
2018-11-27T20:20:12.033Z,28.30
2018-11-27T20:22:40.700Z,32.13
2018-11-27T20:25:10.716Z,31.40
2018-11-27T20:27:39.184Z,29.90
2018-11-27T20:30:16.228Z,31.67
2018-11-27T20:32:51.006Z,28.47
2018-11-27T20:35:19.596Z,27.73
2018-11-27T20:37:49.262Z,25.23
2018-11-27T20:40:18.611Z,27.80
2018-11-27T20:42:47.204Z,26.27
2018-11-27T20:45:19.587Z,30.33
2018-11-27T20:47:48.186Z,29.97
2018-11-27T20:50:19.206Z,24.73
2018-11-27T20:52:47.708Z,29.70
2018-11-27T20:55:16.243Z,27.33
2018-11-27T20:57:49.694Z,25.30
2018-11-27T21:00:21.078Z,30.43
2018-11-27T21:02:50.083Z,25.63
2018-11-27T21:05:18.631Z,25.53
2018-11-27T21:07:47.197Z,26.63
2018-11-27T21:10:15.813Z,23.53
2018-11-27T21:12:44.824Z,24.47
2018-11-27T21:15:14.803Z,22.43
2018-11-27T21:17:43.570Z,26.37
2018-11-27T21:20:14.194Z,26.60
2018-11-27T21:22:42.920Z,25.50
2018-11-27T21:25:15.482Z,24.73
2018-11-27T21:27:45.545Z,22.90
2018-11-27T21:30:16.057Z,29.37
2018-11-27T21:32:44.776Z,19.77
2018-11-27T21:35:16.175Z,28.83
2018-11-27T21:37:44.655Z,25.90
2018-11-27T21:40:15.361Z,25.43
2018-11-27T21:42:43.927Z,25.23
2018-11-27T21:45:22.473Z,27.67
2018-11-27T21:47:51.817Z,25.10
2018-11-27T21:50:25.569Z,23.43
2018-11-27T21:52:54.076Z,25.67
2018-11-27T21:55:22.621Z,20.63
2018-11-27T21:57:51.742Z,25.67
2018-11-27T22:00:21.295Z,22.00
2018-11-27T22:02:49.997Z,26.27
2018-11-27T22:05:18.442Z,24.60
2018-11-27T22:07:47.047Z,27.93
2018-11-27T22:10:19.064Z,25.13
2018-11-27T22:12:49.812Z,21.80
2018-11-27T22:15:30.413Z,27.50
2018-11-27T22:17:58.887Z,27.10
2018-11-27T22:20:28.462Z,24.73
2018-11-27T22:22:56.966Z,22.53
2018-11-27T22:25:25.505Z,24.10
2018-11-27T22:27:54.428Z,27.23
2018-11-27T22:30:22.887Z,26.10
2018-11-27T22:32:52.811Z,26.43
2018-11-27T22:35:21.396Z,22.83
2018-11-27T22:37:50.018Z,27.57
2018-11-27T22:40:19.978Z,27.10
2018-11-27T22:42:48.888Z,28.37
2018-11-27T22:45:23.876Z,30.67
2018-11-27T22:47:52.530Z,22.70
2018-11-27T22:50:21.028Z,24.23
2018-11-27T22:52:49.578Z,24.40
2018-11-27T22:55:18.027Z,27.67
2018-11-27T22:57:46.510Z,30.20
2018-11-27T23:00:21.006Z,28.23
2018-11-27T23:02:49.784Z,29.40
2018-11-27T23:05:19.322Z,25.33
2018-11-27T23:07:47.804Z,28.53
2018-11-27T23:10:16.529Z,29.67
2018-11-27T23:12:45.689Z,27.77
2018-11-27T23:15:15.537Z,26.40
2018-11-27T23:17:44.044Z,24.97
2018-11-27T23:20:15.585Z,28.40
2018-11-27T23:22:44.161Z,32.07
2018-11-27T23:25:13.535Z,28.47
2018-11-27T23:27:42.015Z,28.13
2018-11-27T23:30:18.399Z,29.23
2018-11-27T23:32:46.875Z,26.93
2018-11-27T23:35:15.351Z,28.60
2018-11-27T23:37:43.768Z,26.77
2018-11-27T23:40:13.390Z,28.30
2018-11-27T23:42:42.134Z,28.20
2018-11-27T23:45:14.357Z,29.70
2018-11-27T23:47:42.807Z,24.13
2018-11-27T23:50:12.447Z,29.80
2018-11-27T23:52:41.457Z,30.67
2018-11-27T23:55:11.080Z,26.57
2018-11-27T23:57:40.474Z,27.63
